sensor_id;sensor_type;location;lat;lon;timestamp;P1;durP1;ratioP1;P2;durP2;ratioP2
9968;SDS011;5025;48.890;9.278;2023-07-20T00:01:39;2.77;;;2.40;;
9968;SDS011;5025;48.890;9.278;2023-07-20T00:04:09;3.10;;;2.10;;
9968;SDS011;5025;48.890;9.278;2023-07-20T00:06:35;2.30;;;2.20;;
9968;SDS011;5025;48.890;9.278;2023-07-20T00:09:00;2.20;;;2.10;;
9968;SDS011;5025;48.890;9.278;2023-07-20T00:11:26;2.27;;;2.07;;
9968;SDS011;5025;48.890;9.278;2023-07-20T00:13:52;3.30;;;2.10;;
9968;SDS011;5025;48.890;9.278;2023-07-20T00:16:18;2.67;;;2.30;;
9968;SDS011;5025;48.890;9.278;2023-07-20T00:18:43;2.40;;;2.20;;
9968;SDS011;5025;48.890;9.278;2023-07-20T00:21:08;2.17;;;2.00;;
9968;SDS011;5025;48.890;9.278;2023-07-20T00:23:34;2.00;;;1.90;;
9968;SDS011;5025;48.890;9.278;2023-07-20T00:25:59;2.27;;;2.10;;
9968;SDS011;5025;48.890;9.278;2023-07-20T00:28:25;2.20;;;2.10;;
9968;SDS011;5025;48.890;9.278;2023-07-20T00:30:50;2.30;;;2.20;;
9968;SDS011;5025;48.890;9.278;2023-07-20T00:33:16;2.20;;;2.10;;
9968;SDS011;5025;48.890;9.278;2023-07-20T00:35:42;2.20;;;2.10;;
9968;SDS011;5025;48.890;9.278;2023-07-20T00:38:07;2.30;;;2.20;;
9968;SDS011;5025;48.890;9.278;2023-07-20T00:40:36;4.17;;;2.10;;
9968;SDS011;5025;48.890;9.278;2023-07-20T00:43:02;3.83;;;2.10;;
9968;SDS011;5025;48.890;9.278;2023-07-20T00:45:28;2.33;;;2.00;;
9968;SDS011;5025;48.890;9.278;2023-07-20T00:47:54;1.87;;;1.77;;
9968;SDS011;5025;48.890;9.278;2023-07-20T00:50:20;2.10;;;2.00;;
9968;SDS011;5025;48.890;9.278;2023-07-20T00:52:45;1.90;;;1.80;;
9968;SDS011;5025;48.890;9.278;2023-07-20T00:55:10;2.10;;;2.00;;
9968;SDS011;5025;48.890;9.278;2023-07-20T00:57:36;2.00;;;1.90;;
9968;SDS011;5025;48.890;9.278;2023-07-20T01:00:01;2.30;;;2.20;;
9968;SDS011;5025;48.890;9.278;2023-07-20T01:02:27;2.10;;;2.00;;
9968;SDS011;5025;48.890;9.278;2023-07-20T01:04:52;2.00;;;1.90;;
9968;SDS011;5025;48.890;9.278;2023-07-20T01:10:07;3.13;;;1.93;;
9968;SDS011;5025;48.890;9.278;2023-07-20T01:12:43;2.00;;;1.90;;
9968;SDS011;5025;48.890;9.278;2023-07-20T01:15:16;2.10;;;2.00;;
9968;SDS011;5025;48.890;9.278;2023-07-20T01:17:41;2.20;;;2.00;;
9968;SDS011;5025;48.890;9.278;2023-07-20T01:20:07;2.30;;;1.80;;
9968;SDS011;5025;48.890;9.278;2023-07-20T01:25:17;1.80;;;1.70;;
9968;SDS011;5025;48.890;9.278;2023-07-20T01:30:50;1.77;;;1.67;;
9968;SDS011;5025;48.890;9.278;2023-07-20T01:33:35;1.97;;;1.87;;
9968;SDS011;5025;48.890;9.278;2023-07-20T01:36:01;2.17;;;1.97;;
9968;SDS011;5025;48.890;9.278;2023-07-20T01:38:27;1.90;;;1.80;;
9968;SDS011;5025;48.890;9.278;2023-07-20T01:40:53;1.70;;;1.60;;
9968;SDS011;5025;48.890;9.278;2023-07-20T01:43:19;2.20;;;2.10;;
9968;SDS011;5025;48.890;9.278;2023-07-20T01:45:45;2.20;;;2.10;;
9968;SDS011;5025;48.890;9.278;2023-07-20T01:48:10;2.10;;;1.97;;
9968;SDS011;5025;48.890;9.278;2023-07-20T01:50:35;2.00;;;1.90;;
9968;SDS011;5025;48.890;9.278;2023-07-20T01:53:01;1.70;;;1.60;;
9968;SDS011;5025;48.890;9.278;2023-07-20T01:55:26;1.90;;;1.80;;
9968;SDS011;5025;48.890;9.278;2023-07-20T01:57:52;1.97;;;1.87;;
9968;SDS011;5025;48.890;9.278;2023-07-20T02:00:18;1.90;;;1.80;;
9968;SDS011;5025;48.890;9.278;2023-07-20T02:02:46;1.80;;;1.67;;
9968;SDS011;5025;48.890;9.278;2023-07-20T02:05:11;1.73;;;1.63;;
9968;SDS011;5025;48.890;9.278;2023-07-20T02:07:37;1.70;;;1.60;;
9968;SDS011;5025;48.890;9.278;2023-07-20T02:10:02;1.67;;;1.57;;
9968;SDS011;5025;48.890;9.278;2023-07-20T02:12:27;1.90;;;1.80;;
9968;SDS011;5025;48.890;9.278;2023-07-20T02:14:52;1.57;;;1.57;;
9968;SDS011;5025;48.890;9.278;2023-07-20T02:17:18;2.07;;;1.70;;
9968;SDS011;5025;48.890;9.278;2023-07-20T02:19:43;1.67;;;1.57;;
9968;SDS011;5025;48.890;9.278;2023-07-20T02:22:08;1.63;;;1.53;;
9968;SDS011;5025;48.890;9.278;2023-07-20T02:24:34;1.83;;;1.73;;
9968;SDS011;5025;48.890;9.278;2023-07-20T02:26:59;1.80;;;1.70;;
9968;SDS011;5025;48.890;9.278;2023-07-20T02:29:24;2.07;;;1.83;;
9968;SDS011;5025;48.890;9.278;2023-07-20T02:31:49;1.90;;;1.80;;
9968;SDS011;5025;48.890;9.278;2023-07-20T02:34:15;1.73;;;1.63;;
9968;SDS011;5025;48.890;9.278;2023-07-20T02:36:40;2.07;;;1.93;;
9968;SDS011;5025;48.890;9.278;2023-07-20T02:39:07;1.73;;;1.63;;
9968;SDS011;5025;48.890;9.278;2023-07-20T02:41:33;1.83;;;1.73;;
9968;SDS011;5025;48.890;9.278;2023-07-20T02:43:59;1.87;;;1.60;;
9968;SDS011;5025;48.890;9.278;2023-07-20T02:46:24;1.50;;;1.50;;
9968;SDS011;5025;48.890;9.278;2023-07-20T02:48:49;1.77;;;1.67;;
9968;SDS011;5025;48.890;9.278;2023-07-20T02:51:15;2.67;;;2.00;;
9968;SDS011;5025;48.890;9.278;2023-07-20T02:53:40;2.03;;;1.83;;
9968;SDS011;5025;48.890;9.278;2023-07-20T02:56:06;2.00;;;1.90;;
9968;SDS011;5025;48.890;9.278;2023-07-20T02:58:33;2.00;;;1.90;;
9968;SDS011;5025;48.890;9.278;2023-07-20T03:01:01;1.93;;;1.83;;
9968;SDS011;5025;48.890;9.278;2023-07-20T03:03:27;2.00;;;1.90;;
9968;SDS011;5025;48.890;9.278;2023-07-20T03:05:52;1.90;;;1.80;;
9968;SDS011;5025;48.890;9.278;2023-07-20T03:08:19;1.80;;;1.70;;
9968;SDS011;5025;48.890;9.278;2023-07-20T03:10:45;1.77;;;1.67;;
9968;SDS011;5025;48.890;9.278;2023-07-20T03:13:10;1.90;;;1.80;;
9968;SDS011;5025;48.890;9.278;2023-07-20T03:15:35;2.13;;;2.03;;
9968;SDS011;5025;48.890;9.278;2023-07-20T03:18:01;1.83;;;1.73;;
9968;SDS011;5025;48.890;9.278;2023-07-20T03:20:26;1.90;;;1.80;;
9968;SDS011;5025;48.890;9.278;2023-07-20T03:22:51;1.93;;;1.83;;
9968;SDS011;5025;48.890;9.278;2023-07-20T03:25:16;1.90;;;1.80;;
9968;SDS011;5025;48.890;9.278;2023-07-20T03:27:42;1.90;;;1.80;;
9968;SDS011;5025;48.890;9.278;2023-07-20T03:30:08;1.90;;;1.80;;
9968;SDS011;5025;48.890;9.278;2023-07-20T03:32:34;1.93;;;1.80;;
9968;SDS011;5025;48.890;9.278;2023-07-20T03:34:59;2.10;;;1.90;;
9968;SDS011;5025;48.890;9.278;2023-07-20T03:37:25;2.10;;;2.00;;
9968;SDS011;5025;48.890;9.278;2023-07-20T03:39:50;1.87;;;1.77;;
9968;SDS011;5025;48.890;9.278;2023-07-20T03:42:15;2.00;;;1.90;;
9968;SDS011;5025;48.890;9.278;2023-07-20T03:44:41;2.07;;;1.97;;
9968;SDS011;5025;48.890;9.278;2023-07-20T03:47:06;3.37;;;1.83;;
9968;SDS011;5025;48.890;9.278;2023-07-20T03:49:31;1.93;;;1.70;;
9968;SDS011;5025;48.890;9.278;2023-07-20T03:51:57;2.23;;;2.03;;
9968;SDS011;5025;48.890;9.278;2023-07-20T03:54:22;2.47;;;2.13;;
9968;SDS011;5025;48.890;9.278;2023-07-20T03:56:47;2.50;;;2.30;;
9968;SDS011;5025;48.890;9.278;2023-07-20T03:59:13;2.40;;;2.20;;
9968;SDS011;5025;48.890;9.278;2023-07-20T04:01:38;2.40;;;2.20;;
9968;SDS011;5025;48.890;9.278;2023-07-20T04:04:05;2.20;;;2.10;;
9968;SDS011;5025;48.890;9.278;2023-07-20T04:06:32;2.40;;;2.20;;
9968;SDS011;5025;48.890;9.278;2023-07-20T04:08:57;2.10;;;2.00;;
9968;SDS011;5025;48.890;9.278;2023-07-20T04:11:22;2.10;;;1.90;;
9968;SDS011;5025;48.890;9.278;2023-07-20T04:13:47;2.10;;;2.00;;
9968;SDS011;5025;48.890;9.278;2023-07-20T04:16:13;2.10;;;2.00;;
9968;SDS011;5025;48.890;9.278;2023-07-20T04:18:38;2.10;;;2.00;;
9968;SDS011;5025;48.890;9.278;2023-07-20T04:21:03;2.00;;;1.90;;
9968;SDS011;5025;48.890;9.278;2023-07-20T04:23:29;2.73;;;2.20;;
9968;SDS011;5025;48.890;9.278;2023-07-20T04:25:54;2.30;;;2.10;;
9968;SDS011;5025;48.890;9.278;2023-07-20T04:28:19;2.30;;;2.10;;
9968;SDS011;5025;48.890;9.278;2023-07-20T04:30:48;2.13;;;2.03;;
9968;SDS011;5025;48.890;9.278;2023-07-20T04:33:15;1.90;;;1.80;;
9968;SDS011;5025;48.890;9.278;2023-07-20T04:35:50;2.40;;;2.20;;
9968;SDS011;5025;48.890;9.278;2023-07-20T04:38:17;2.60;;;2.40;;
9968;SDS011;5025;48.890;9.278;2023-07-20T04:40:47;2.13;;;2.03;;
9968;SDS011;5025;48.890;9.278;2023-07-20T04:43:14;3.03;;;2.17;;
9968;SDS011;5025;48.890;9.278;2023-07-20T04:45:42;2.33;;;2.23;;
9968;SDS011;5025;48.890;9.278;2023-07-20T04:48:11;2.10;;;2.00;;
9968;SDS011;5025;48.890;9.278;2023-07-20T04:50:41;2.30;;;2.10;;
9968;SDS011;5025;48.890;9.278;2023-07-20T04:53:08;2.13;;;2.03;;
9968;SDS011;5025;48.890;9.278;2023-07-20T04:55:35;2.17;;;2.07;;
9968;SDS011;5025;48.890;9.278;2023-07-20T04:58:01;2.50;;;2.30;;
9968;SDS011;5025;48.890;9.278;2023-07-20T05:00:27;2.20;;;2.00;;
9968;SDS011;5025;48.890;9.278;2023-07-20T05:02:52;2.30;;;2.10;;
9968;SDS011;5025;48.890;9.278;2023-07-20T05:05:17;2.20;;;2.00;;
9968;SDS011;5025;48.890;9.278;2023-07-20T05:07:43;2.43;;;2.23;;
9968;SDS011;5025;48.890;9.278;2023-07-20T05:10:09;2.40;;;2.20;;
9968;SDS011;5025;48.890;9.278;2023-07-20T05:12:35;2.27;;;2.17;;
9968;SDS011;5025;48.890;9.278;2023-07-20T05:15:00;2.30;;;2.20;;
9968;SDS011;5025;48.890;9.278;2023-07-20T05:17:25;2.47;;;2.27;;
9968;SDS011;5025;48.890;9.278;2023-07-20T05:19:50;2.10;;;1.90;;
9968;SDS011;5025;48.890;9.278;2023-07-20T05:22:16;2.33;;;2.23;;
9968;SDS011;5025;48.890;9.278;2023-07-20T05:24:41;2.30;;;2.20;;
9968;SDS011;5025;48.890;9.278;2023-07-20T05:27:07;2.47;;;2.27;;
9968;SDS011;5025;48.890;9.278;2023-07-20T05:29:32;2.00;;;1.90;;
9968;SDS011;5025;48.890;9.278;2023-07-20T05:31:58;2.07;;;1.93;;
9968;SDS011;5025;48.890;9.278;2023-07-20T05:34:23;2.80;;;2.40;;
9968;SDS011;5025;48.890;9.278;2023-07-20T05:36:48;2.90;;;2.20;;
9968;SDS011;5025;48.890;9.278;2023-07-20T05:39:14;2.10;;;2.00;;
9968;SDS011;5025;48.890;9.278;2023-07-20T05:41:41;2.00;;;1.90;;
9968;SDS011;5025;48.890;9.278;2023-07-20T05:44:07;1.90;;;1.80;;
9968;SDS011;5025;48.890;9.278;2023-07-20T05:46:32;2.17;;;2.00;;
9968;SDS011;5025;48.890;9.278;2023-07-20T05:48:57;2.10;;;2.00;;
9968;SDS011;5025;48.890;9.278;2023-07-20T05:51:22;1.60;;;1.50;;
9968;SDS011;5025;48.890;9.278;2023-07-20T05:53:48;2.30;;;2.10;;
9968;SDS011;5025;48.890;9.278;2023-07-20T05:56:13;2.40;;;2.10;;
9968;SDS011;5025;48.890;9.278;2023-07-20T05:58:39;2.43;;;1.80;;
9968;SDS011;5025;48.890;9.278;2023-07-20T06:01:04;1.70;;;1.60;;
9968;SDS011;5025;48.890;9.278;2023-07-20T06:03:32;1.97;;;1.77;;
9968;SDS011;5025;48.890;9.278;2023-07-20T06:06:02;1.73;;;1.70;;
9968;SDS011;5025;48.890;9.278;2023-07-20T06:08:29;1.90;;;1.80;;
9968;SDS011;5025;48.890;9.278;2023-07-20T06:10:54;1.70;;;1.60;;
9968;SDS011;5025;48.890;9.278;2023-07-20T06:13:20;3.67;;;2.27;;
9968;SDS011;5025;48.890;9.278;2023-07-20T06:15:45;2.70;;;2.23;;
9968;SDS011;5025;48.890;9.278;2023-07-20T06:18:10;3.70;;;2.30;;
9968;SDS011;5025;48.890;9.278;2023-07-20T06:20:35;2.80;;;1.90;;
9968;SDS011;5025;48.890;9.278;2023-07-20T06:23:01;3.03;;;2.20;;
9968;SDS011;5025;48.890;9.278;2023-07-20T06:25:26;2.00;;;1.80;;
9968;SDS011;5025;48.890;9.278;2023-07-20T06:27:51;2.33;;;1.70;;
9968;SDS011;5025;48.890;9.278;2023-07-20T06:30:17;1.97;;;1.87;;
9968;SDS011;5025;48.890;9.278;2023-07-20T06:32:43;2.03;;;1.93;;
9968;SDS011;5025;48.890;9.278;2023-07-20T06:35:08;2.20;;;2.00;;
9968;SDS011;5025;48.890;9.278;2023-07-20T06:37:34;2.20;;;2.00;;
9968;SDS011;5025;48.890;9.278;2023-07-20T06:40:00;2.10;;;1.90;;
9968;SDS011;5025;48.890;9.278;2023-07-20T06:42:25;1.90;;;1.80;;
9968;SDS011;5025;48.890;9.278;2023-07-20T06:44:50;1.83;;;1.73;;
9968;SDS011;5025;48.890;9.278;2023-07-20T06:47:15;2.73;;;2.00;;
9968;SDS011;5025;48.890;9.278;2023-07-20T06:49:41;4.37;;;2.00;;
9968;SDS011;5025;48.890;9.278;2023-07-20T06:52:06;1.97;;;1.87;;
9968;SDS011;5025;48.890;9.278;2023-07-20T06:54:32;2.23;;;2.03;;
9968;SDS011;5025;48.890;9.278;2023-07-20T06:56:57;2.40;;;2.20;;
9968;SDS011;5025;48.890;9.278;2023-07-20T06:59:22;2.00;;;1.90;;
9968;SDS011;5025;48.890;9.278;2023-07-20T07:01:49;2.37;;;2.17;;
9968;SDS011;5025;48.890;9.278;2023-07-20T07:04:14;2.37;;;2.17;;
9968;SDS011;5025;48.890;9.278;2023-07-20T07:06:39;2.10;;;1.90;;
9968;SDS011;5025;48.890;9.278;2023-07-20T07:09:04;2.57;;;2.37;;
9968;SDS011;5025;48.890;9.278;2023-07-20T07:11:30;2.97;;;2.10;;
9968;SDS011;5025;48.890;9.278;2023-07-20T07:13:55;2.07;;;1.97;;
9968;SDS011;5025;48.890;9.278;2023-07-20T07:16:21;2.57;;;2.27;;
9968;SDS011;5025;48.890;9.278;2023-07-20T07:18:46;2.70;;;2.27;;
9968;SDS011;5025;48.890;9.278;2023-07-20T07:21:12;2.30;;;2.10;;
9968;SDS011;5025;48.890;9.278;2023-07-20T07:23:40;2.40;;;2.20;;
9968;SDS011;5025;48.890;9.278;2023-07-20T07:26:05;2.67;;;2.20;;
9968;SDS011;5025;48.890;9.278;2023-07-20T07:28:31;4.80;;;2.33;;
9968;SDS011;5025;48.890;9.278;2023-07-20T07:30:57;3.20;;;2.20;;
9968;SDS011;5025;48.890;9.278;2023-07-20T07:33:22;2.20;;;2.00;;
9968;SDS011;5025;48.890;9.278;2023-07-20T07:35:49;2.10;;;2.00;;
9968;SDS011;5025;48.890;9.278;2023-07-20T07:38:17;2.67;;;2.30;;
9968;SDS011;5025;48.890;9.278;2023-07-20T07:40:43;2.30;;;2.10;;
9968;SDS011;5025;48.890;9.278;2023-07-20T07:43:09;4.23;;;2.20;;
9968;SDS011;5025;48.890;9.278;2023-07-20T07:45:34;3.43;;;2.13;;
9968;SDS011;5025;48.890;9.278;2023-07-20T07:48:01;2.13;;;1.93;;
9968;SDS011;5025;48.890;9.278;2023-07-20T07:50:27;2.70;;;2.30;;
9968;SDS011;5025;48.890;9.278;2023-07-20T07:52:53;2.30;;;2.10;;
9968;SDS011;5025;48.890;9.278;2023-07-20T07:55:18;2.17;;;2.07;;
9968;SDS011;5025;48.890;9.278;2023-07-20T07:57:43;2.63;;;2.40;;
9968;SDS011;5025;48.890;9.278;2023-07-20T08:00:09;3.43;;;2.20;;
9968;SDS011;5025;48.890;9.278;2023-07-20T08:02:39;2.37;;;2.17;;
9968;SDS011;5025;48.890;9.278;2023-07-20T08:05:04;2.57;;;2.23;;
9968;SDS011;5025;48.890;9.278;2023-07-20T08:07:30;3.30;;;2.30;;
9968;SDS011;5025;48.890;9.278;2023-07-20T08:09:55;2.80;;;2.30;;
9968;SDS011;5025;48.890;9.278;2023-07-20T08:12:20;2.03;;;1.93;;
9968;SDS011;5025;48.890;9.278;2023-07-20T08:14:46;4.50;;;2.40;;
9968;SDS011;5025;48.890;9.278;2023-07-20T08:17:11;3.90;;;2.30;;
9968;SDS011;5025;48.890;9.278;2023-07-20T08:19:37;2.50;;;2.30;;
9968;SDS011;5025;48.890;9.278;2023-07-20T08:22:06;2.10;;;1.90;;
9968;SDS011;5025;48.890;9.278;2023-07-20T08:24:31;2.83;;;1.90;;
9968;SDS011;5025;48.890;9.278;2023-07-20T08:26:57;2.77;;;2.10;;
9968;SDS011;5025;48.890;9.278;2023-07-20T08:29:23;3.33;;;2.10;;
9968;SDS011;5025;48.890;9.278;2023-07-20T08:31:48;3.47;;;2.07;;
9968;SDS011;5025;48.890;9.278;2023-07-20T08:34:14;2.23;;;1.97;;
9968;SDS011;5025;48.890;9.278;2023-07-20T08:36:39;6.50;;;2.50;;
9968;SDS011;5025;48.890;9.278;2023-07-20T08:39:04;5.93;;;2.07;;
9968;SDS011;5025;48.890;9.278;2023-07-20T08:41:29;3.23;;;2.07;;
9968;SDS011;5025;48.890;9.278;2023-07-20T08:43:55;3.90;;;1.97;;
9968;SDS011;5025;48.890;9.278;2023-07-20T08:46:22;2.90;;;2.10;;
9968;SDS011;5025;48.890;9.278;2023-07-20T08:48:49;2.30;;;2.10;;
9968;SDS011;5025;48.890;9.278;2023-07-20T08:51:17;2.17;;;1.97;;
9968;SDS011;5025;48.890;9.278;2023-07-20T08:53:44;2.47;;;2.27;;
9968;SDS011;5025;48.890;9.278;2023-07-20T08:56:10;2.30;;;2.10;;
9968;SDS011;5025;48.890;9.278;2023-07-20T08:58:36;4.30;;;2.40;;
9968;SDS011;5025;48.890;9.278;2023-07-20T09:01:04;2.10;;;1.80;;
9968;SDS011;5025;48.890;9.278;2023-07-20T09:03:29;2.70;;;1.90;;
9968;SDS011;5025;48.890;9.278;2023-07-20T09:05:55;1.90;;;1.80;;
9968;SDS011;5025;48.890;9.278;2023-07-20T09:08:20;1.87;;;1.77;;
9968;SDS011;5025;48.890;9.278;2023-07-20T09:10:45;2.50;;;1.80;;
9968;SDS011;5025;48.890;9.278;2023-07-20T09:13:14;2.07;;;1.80;;
9968;SDS011;5025;48.890;9.278;2023-07-20T09:15:45;4.13;;;2.27;;
9968;SDS011;5025;48.890;9.278;2023-07-20T09:18:11;1.73;;;1.63;;
9968;SDS011;5025;48.890;9.278;2023-07-20T09:20:37;3.37;;;1.90;;
9968;SDS011;5025;48.890;9.278;2023-07-20T09:23:06;2.20;;;1.70;;
9968;SDS011;5025;48.890;9.278;2023-07-20T09:25:31;2.00;;;1.90;;
9968;SDS011;5025;48.890;9.278;2023-07-20T09:28:01;3.97;;;2.00;;
9968;SDS011;5025;48.890;9.278;2023-07-20T09:30:27;3.23;;;2.20;;
9968;SDS011;5025;48.890;9.278;2023-07-20T09:32:52;3.70;;;2.20;;
9968;SDS011;5025;48.890;9.278;2023-07-20T09:35:19;3.43;;;2.03;;
9968;SDS011;5025;48.890;9.278;2023-07-20T09:37:46;4.77;;;2.20;;
9968;SDS011;5025;48.890;9.278;2023-07-20T09:40:14;2.27;;;1.97;;
9968;SDS011;5025;48.890;9.278;2023-07-20T09:42:41;2.83;;;2.03;;
9968;SDS011;5025;48.890;9.278;2023-07-20T09:45:07;2.37;;;1.70;;
9968;SDS011;5025;48.890;9.278;2023-07-20T09:47:34;1.80;;;1.70;;
9968;SDS011;5025;48.890;9.278;2023-07-20T09:50:01;2.10;;;1.70;;
9968;SDS011;5025;48.890;9.278;2023-07-20T09:52:28;2.83;;;1.73;;
9968;SDS011;5025;48.890;9.278;2023-07-20T09:54:54;1.70;;;1.60;;
9968;SDS011;5025;48.890;9.278;2023-07-20T09:57:20;2.80;;;2.00;;
9968;SDS011;5025;48.890;9.278;2023-07-20T09:59:46;2.17;;;1.43;;
9968;SDS011;5025;48.890;9.278;2023-07-20T10:02:20;1.60;;;1.50;;
9968;SDS011;5025;48.890;9.278;2023-07-20T10:04:51;1.83;;;1.70;;
9968;SDS011;5025;48.890;9.278;2023-07-20T10:07:18;4.10;;;1.80;;
9968;SDS011;5025;48.890;9.278;2023-07-20T10:09:46;3.20;;;1.60;;
9968;SDS011;5025;48.890;9.278;2023-07-20T10:12:13;3.33;;;1.67;;
9968;SDS011;5025;48.890;9.278;2023-07-20T10:14:40;2.20;;;1.47;;
9968;SDS011;5025;48.890;9.278;2023-07-20T10:17:10;4.07;;;1.40;;
9968;SDS011;5025;48.890;9.278;2023-07-20T10:22:14;1.77;;;1.60;;
9968;SDS011;5025;48.890;9.278;2023-07-20T10:24:44;4.00;;;1.80;;
9968;SDS011;5025;48.890;9.278;2023-07-20T10:27:10;3.30;;;1.60;;
9968;SDS011;5025;48.890;9.278;2023-07-20T10:29:35;4.87;;;1.70;;
9968;SDS011;5025;48.890;9.278;2023-07-20T10:32:01;2.20;;;1.50;;
9968;SDS011;5025;48.890;9.278;2023-07-20T10:34:27;1.53;;;1.40;;
9968;SDS011;5025;48.890;9.278;2023-07-20T10:36:53;4.13;;;1.80;;
9968;SDS011;5025;48.890;9.278;2023-07-20T10:39:26;1.70;;;1.60;;
9968;SDS011;5025;48.890;9.278;2023-07-20T10:44:28;2.27;;;1.50;;
9968;SDS011;5025;48.890;9.278;2023-07-20T10:47:00;4.43;;;1.53;;
9968;SDS011;5025;48.890;9.278;2023-07-20T10:49:27;1.40;;;1.30;;
9968;SDS011;5025;48.890;9.278;2023-07-20T10:51:57;3.00;;;1.70;;
9968;SDS011;5025;48.890;9.278;2023-07-20T10:56:52;2.67;;;1.40;;
9968;SDS011;5025;48.890;9.278;2023-07-20T10:59:17;3.23;;;1.50;;
9968;SDS011;5025;48.890;9.278;2023-07-20T11:01:49;1.70;;;1.60;;
9968;SDS011;5025;48.890;9.278;2023-07-20T11:04:20;1.60;;;1.50;;
9968;SDS011;5025;48.890;9.278;2023-07-20T11:07:08;1.50;;;1.40;;
9968;SDS011;5025;48.890;9.278;2023-07-20T11:09:35;4.13;;;1.30;;
9968;SDS011;5025;48.890;9.278;2023-07-20T11:14:40;2.53;;;1.40;;
9968;SDS011;5025;48.890;9.278;2023-07-20T11:17:13;2.87;;;1.30;;
9968;SDS011;5025;48.890;9.278;2023-07-20T11:19:40;5.23;;;1.60;;
9968;SDS011;5025;48.890;9.278;2023-07-20T11:22:05;6.33;;;1.60;;
9968;SDS011;5025;48.890;9.278;2023-07-20T11:24:37;3.00;;;1.27;;
9968;SDS011;5025;48.890;9.278;2023-07-20T11:27:03;3.23;;;1.50;;
9968;SDS011;5025;48.890;9.278;2023-07-20T11:29:29;4.73;;;1.70;;
9968;SDS011;5025;48.890;9.278;2023-07-20T11:31:54;1.43;;;1.30;;
9968;SDS011;5025;48.890;9.278;2023-07-20T11:34:20;1.47;;;1.47;;
9968;SDS011;5025;48.890;9.278;2023-07-20T11:36:47;2.63;;;1.53;;
9968;SDS011;5025;48.890;9.278;2023-07-20T11:39:15;1.48;;;1.33;;
9968;SDS011;5025;48.890;9.278;2023-07-20T11:41:48;1.93;;;1.30;;
9968;SDS011;5025;48.890;9.278;2023-07-20T11:44:18;1.83;;;1.50;;
9968;SDS011;5025;48.890;9.278;2023-07-20T11:46:45;4.53;;;1.73;;
9968;SDS011;5025;48.890;9.278;2023-07-20T11:49:11;1.60;;;1.40;;
9968;SDS011;5025;48.890;9.278;2023-07-20T11:51:37;1.20;;;1.20;;
9968;SDS011;5025;48.890;9.278;2023-07-20T11:54:05;1.60;;;1.50;;
9968;SDS011;5025;48.890;9.278;2023-07-20T11:56:32;1.50;;;1.40;;
9968;SDS011;5025;48.890;9.278;2023-07-20T11:58:57;1.53;;;1.43;;
9968;SDS011;5025;48.890;9.278;2023-07-20T12:01:28;2.23;;;1.20;;
9968;SDS011;5025;48.890;9.278;2023-07-20T12:04:00;3.07;;;1.60;;
9968;SDS011;5025;48.890;9.278;2023-07-20T12:06:28;1.53;;;1.43;;
9968;SDS011;5025;48.890;9.278;2023-07-20T12:08:54;2.17;;;1.27;;
9968;SDS011;5025;48.890;9.278;2023-07-20T12:11:30;1.43;;;1.27;;
9968;SDS011;5025;48.890;9.278;2023-07-20T12:14:03;2.00;;;1.60;;
9968;SDS011;5025;48.890;9.278;2023-07-20T12:16:29;1.70;;;1.43;;
9968;SDS011;5025;48.890;9.278;2023-07-20T12:18:59;1.50;;;1.40;;
9968;SDS011;5025;48.890;9.278;2023-07-20T12:21:25;1.87;;;1.60;;
9968;SDS011;5025;48.890;9.278;2023-07-20T12:23:51;1.70;;;1.60;;
9968;SDS011;5025;48.890;9.278;2023-07-20T12:26:16;3.90;;;1.70;;
9968;SDS011;5025;48.890;9.278;2023-07-20T12:28:41;2.50;;;1.57;;
9968;SDS011;5025;48.890;9.278;2023-07-20T12:31:07;1.60;;;1.50;;
9968;SDS011;5025;48.890;9.278;2023-07-20T12:33:34;1.40;;;1.30;;
9968;SDS011;5025;48.890;9.278;2023-07-20T12:36:00;1.30;;;1.20;;
9968;SDS011;5025;48.890;9.278;2023-07-20T12:38:26;1.43;;;1.33;;
9968;SDS011;5025;48.890;9.278;2023-07-20T12:40:52;1.53;;;1.20;;
9968;SDS011;5025;48.890;9.278;2023-07-20T12:43:19;1.30;;;1.20;;
9968;SDS011;5025;48.890;9.278;2023-07-20T12:45:45;1.33;;;1.30;;
9968;SDS011;5025;48.890;9.278;2023-07-20T12:48:10;1.00;;;1.00;;
9968;SDS011;5025;48.890;9.278;2023-07-20T12:50:35;1.73;;;1.50;;
9968;SDS011;5025;48.890;9.278;2023-07-20T12:53:01;1.70;;;1.60;;
9968;SDS011;5025;48.890;9.278;2023-07-20T12:55:28;1.40;;;1.30;;
9968;SDS011;5025;48.890;9.278;2023-07-20T12:57:54;1.40;;;1.40;;
9968;SDS011;5025;48.890;9.278;2023-07-20T13:00:19;2.40;;;1.40;;
9968;SDS011;5025;48.890;9.278;2023-07-20T13:02:44;1.43;;;1.40;;
9968;SDS011;5025;48.890;9.278;2023-07-20T13:05:10;1.17;;;1.17;;
9968;SDS011;5025;48.890;9.278;2023-07-20T13:07:36;1.50;;;1.40;;
9968;SDS011;5025;48.890;9.278;2023-07-20T13:10:03;1.30;;;1.30;;
9968;SDS011;5025;48.890;9.278;2023-07-20T13:12:30;1.40;;;1.30;;
9968;SDS011;5025;48.890;9.278;2023-07-20T13:14:56;1.40;;;1.30;;
9968;SDS011;5025;48.890;9.278;2023-07-20T13:17:22;1.30;;;1.30;;
9968;SDS011;5025;48.890;9.278;2023-07-20T13:19:48;1.40;;;1.30;;
9968;SDS011;5025;48.890;9.278;2023-07-20T13:22:13;1.37;;;1.27;;
9968;SDS011;5025;48.890;9.278;2023-07-20T13:24:39;2.50;;;1.73;;
9968;SDS011;5025;48.890;9.278;2023-07-20T13:27:05;2.10;;;1.40;;
9968;SDS011;5025;48.890;9.278;2023-07-20T13:29:31;1.60;;;1.50;;
9968;SDS011;5025;48.890;9.278;2023-07-20T13:31:57;1.47;;;1.37;;
9968;SDS011;5025;48.890;9.278;2023-07-20T13:34:22;1.20;;;1.20;;
9968;SDS011;5025;48.890;9.278;2023-07-20T13:36:48;2.77;;;1.50;;
9968;SDS011;5025;48.890;9.278;2023-07-20T13:39:13;1.53;;;1.43;;
9968;SDS011;5025;48.890;9.278;2023-07-20T13:41:38;1.97;;;1.60;;
9968;SDS011;5025;48.890;9.278;2023-07-20T13:44:04;1.13;;;1.13;;
9968;SDS011;5025;48.890;9.278;2023-07-20T13:46:29;1.20;;;1.20;;
9968;SDS011;5025;48.890;9.278;2023-07-20T13:48:54;1.40;;;1.30;;
9968;SDS011;5025;48.890;9.278;2023-07-20T13:51:20;1.37;;;1.20;;
9968;SDS011;5025;48.890;9.278;2023-07-20T13:53:45;1.60;;;1.50;;
9968;SDS011;5025;48.890;9.278;2023-07-20T13:56:12;1.50;;;1.37;;
9968;SDS011;5025;48.890;9.278;2023-07-20T13:58:38;1.20;;;1.20;;
9968;SDS011;5025;48.890;9.278;2023-07-20T14:01:03;1.50;;;1.40;;
9968;SDS011;5025;48.890;9.278;2023-07-20T14:03:28;1.40;;;1.30;;
9968;SDS011;5025;48.890;9.278;2023-07-20T14:05:53;1.33;;;1.33;;
9968;SDS011;5025;48.890;9.278;2023-07-20T14:08:19;1.53;;;1.43;;
9968;SDS011;5025;48.890;9.278;2023-07-20T14:10:45;1.27;;;1.27;;
9968;SDS011;5025;48.890;9.278;2023-07-20T14:13:11;1.20;;;1.20;;
9968;SDS011;5025;48.890;9.278;2023-07-20T14:15:36;0.93;;;0.93;;
9968;SDS011;5025;48.890;9.278;2023-07-20T14:18:02;1.40;;;1.40;;
9968;SDS011;5025;48.890;9.278;2023-07-20T14:20:27;1.20;;;1.20;;
9968;SDS011;5025;48.890;9.278;2023-07-20T14:22:52;2.27;;;1.50;;
9968;SDS011;5025;48.890;9.278;2023-07-20T14:25:17;1.60;;;1.50;;
9968;SDS011;5025;48.890;9.278;2023-07-20T14:27:43;1.90;;;1.27;;
9968;SDS011;5025;48.890;9.278;2023-07-20T14:30:08;1.30;;;1.30;;
9968;SDS011;5025;48.890;9.278;2023-07-20T14:32:34;1.30;;;1.30;;
9968;SDS011;5025;48.890;9.278;2023-07-20T14:34:59;2.00;;;1.20;;
9968;SDS011;5025;48.890;9.278;2023-07-20T14:37:24;2.80;;;1.30;;
9968;SDS011;5025;48.890;9.278;2023-07-20T14:39:50;1.67;;;1.53;;
9968;SDS011;5025;48.890;9.278;2023-07-20T14:42:15;1.20;;;1.20;;
9968;SDS011;5025;48.890;9.278;2023-07-20T14:44:40;1.80;;;1.40;;
9968;SDS011;5025;48.890;9.278;2023-07-20T14:47:05;1.40;;;1.30;;
9968;SDS011;5025;48.890;9.278;2023-07-20T14:49:31;1.13;;;1.13;;
9968;SDS011;5025;48.890;9.278;2023-07-20T14:51:56;1.50;;;1.40;;
9968;SDS011;5025;48.890;9.278;2023-07-20T14:54:21;1.30;;;1.30;;
9968;SDS011;5025;48.890;9.278;2023-07-20T14:56:50;2.87;;;1.47;;
9968;SDS011;5025;48.890;9.278;2023-07-20T14:59:17;1.83;;;1.50;;
9968;SDS011;5025;48.890;9.278;2023-07-20T15:01:43;1.50;;;1.50;;
9968;SDS011;5025;48.890;9.278;2023-07-20T15:04:10;1.30;;;1.30;;
9968;SDS011;5025;48.890;9.278;2023-07-20T15:06:36;1.33;;;1.23;;
9968;SDS011;5025;48.890;9.278;2023-07-20T15:09:01;1.33;;;1.33;;
9968;SDS011;5025;48.890;9.278;2023-07-20T15:11:26;1.60;;;1.50;;
9968;SDS011;5025;48.890;9.278;2023-07-20T15:13:51;1.60;;;1.50;;
9968;SDS011;5025;48.890;9.278;2023-07-20T15:16:17;1.20;;;1.20;;
9968;SDS011;5025;48.890;9.278;2023-07-20T15:18:42;1.27;;;1.27;;
9968;SDS011;5025;48.890;9.278;2023-07-20T15:21:07;1.30;;;1.30;;
9968;SDS011;5025;48.890;9.278;2023-07-20T15:23:32;1.40;;;1.20;;
9968;SDS011;5025;48.890;9.278;2023-07-20T15:25:58;1.33;;;1.23;;
9968;SDS011;5025;48.890;9.278;2023-07-20T15:28:23;1.10;;;1.10;;